Armbrust, Pennsylvania
Current Conditions -  °F | °C
As of 8:50 PM on Friday 19 Dec 2014 (Local Time) from KLBE Reporting Station
Overcast Overcast  
Wind Chill: 23°   Ceiling: 2800
Heat Index: 30°   Visibility: 10mi
Dew Point: 21°   Wind: 7mph
Humidity: 69%   Direction: 300°WNW
Pressure: 30.28"   Gusts: NA
Location:  40.22°N, 79.55°W
Report Text: KLBE 200150Z 30006KT 10SM OVC028 M01/M06 A3028
Loading
Personal Weather Stations






























Interactive Weather Map New forecast layout! Learn more

10-Day Weather Forecast

Advertisements
Track Severe Weather on mobile